Frankenthal- Eppstein (101 m) : 20.02.2018
Datum Zeit
(MEZ)
Temp.
(2 m)
Temp.
(20 cm)
Luftfeuchte Blattnässe Nieder-
schlag
Wind Zeit
(MEZ)
[°C] [°C] [%] [%] [mm] [m/s]
20.02.2018 23:55 1.3 1.0 77 6 0.0 1.8 23:55
  23:50 1.3 1.0 77 6 0.0 1.1 23:50
  23:45 1.3 1.0 78 6 0.0 0.6 23:45
  23:40 1.2 0.9 78 6 0.0 0.4 23:40
  23:35 1.3 1.0 78 6 0.0 0.8 23:35
  23:30 1.3 0.9 80 6 0.0 1.5 23:30
  23:25 0.9 0.6 82 7 0.0 0.5 23:25
  23:20 0.8 0.4 82 7 0.0 0.1 23:20
  23:15 0.8 0.4 81 7 0.0 0.0 23:15
  23:10 0.7 0.3 82 7 0.0 0.1 23:10
  23:05 0.7 0.3 82 7 0.0 0.2 23:05
  23:00 0.7 0.3 82 7 0.0 0.1 23:00
  22:55 0.7 0.2 82 7 0.0 0.1 22:55
  22:50 0.7 0.1 82 7 0.0 0.0 22:50
  22:45 0.7 0.1 82 7 0.0 0.0 22:45
  22:40 0.7 0.1 81 7 0.0 0.0 22:40
  22:35 0.7 0.2 81 10 0.0 0.0 22:35
  22:30 0.8 0.2 81 7 0.0 0.0 22:30
  22:25 0.8 0.3 81 7 0.0 0.0 22:25
  22:20 0.9 0.4 81 6 0.0 0.0 22:20
  22:15 0.9 0.5 82 7 0.0 0.0 22:15
  22:10 0.9 0.6 83 7 0.0 0.0 22:10
  22:05 1.0 0.7 83 7 0.0 0.0 22:05
  22:00 1.1 0.8 82 7 0.0 0.4 22:00
20.02.2018 21:55 1.1 0.9 83 7 0.0 0.6 21:55
  21:50 1.2 1.0 81 7 0.0 0.1 21:50
  21:45 1.4 1.1 80 6 0.0 0.6 21:45
  21:40 1.4 1.2 80 6 0.0 1.6 21:40
  21:35 1.6 1.4 79 6 0.0 1.4 21:35
  21:30 1.7 1.5 78 6 0.0 0.9 21:30
  21:25 1.8 1.6 77 6 0.0 1.3 21:25
  21:20 1.9 1.6 77 6 0.0 0.9 21:20
  21:15 1.8 1.5 77 6 0.0 0.9 21:15
  21:10 1.7 1.4 78 6 0.0 0.7 21:10
  21:05 1.5 1.2 78 6 0.0 0.5 21:05
  21:00 1.4 1.1 79 6 0.0 0.3 21:00
  20:55 1.3 1.0 79 6 0.0 0.3 20:55
  20:50 1.3 1.0 80 6 0.0 0.6 20:50
  20:45 1.2 0.9 81 6 0.0 0.4 20:45
  20:40 1.1 0.8 82 6 0.0 0.5 20:40
  20:35 1.1 0.8 82 6 0.0 0.5 20:35
  20:30 1.1 0.8 82 6 0.0 0.4 20:30
  20:25 1.1 0.9 82 6 0.0 0.6 20:25
  20:20 1.1 0.8 81 6 0.0 0.5 20:20
  20:15 1.2 0.9 81 6 0.0 0.6 20:15
  20:10 1.2 0.9 81 6 0.0 0.6 20:10
  20:05 1.2 0.9 81 6 0.0 0.7 20:05
  20:00 1.2 0.9 80 6 0.0 0.5 20:00
20.02.2018 19:55 1.3 1.0 80 6 0.0 0.2 19:55
  19:50 1.5 1.1 79 6 0.0 0.4 19:50
  19:45 1.5 1.1 79 6 0.0 0.2 19:45
  19:40 1.5 1.1 79 6 0.0 0.2 19:40
  19:35 1.5 1.1 78 6 0.0 0.0 19:35
  19:30 1.6 1.2 77 6 0.0 0.2 19:30
  19:25 1.6 1.2 77 6 0.0 0.4 19:25
  19:20 1.7 1.2 76 6 0.0 0.2 19:20
  19:15 1.7 1.1 76 6 0.0 0.2 19:15
  19:10 1.7 1.1 76 6 0.0 0.1 19:10
  19:05 1.7 1.1 76 6 0.0 0.2 19:05
  19:00 1.7 1.1 75 6 0.0 0.1 19:00
  18:55 1.7 1.2 75 6 0.0 0.0 18:55
  18:50 1.8 1.2 74 6 0.0 0.1 18:50
  18:45 1.9 1.2 74 6 0.0 0.1 18:45
  18:40 2.0 1.4 73 6 0.0 0.2 18:40
  18:35 2.1 1.5 73 6 0.0 0.1 18:35
  18:30 2.2 1.7 73 6 0.0 0.2 18:30
  18:25 2.4 1.9 72 6 0.0 0.2 18:25
  18:20 2.6 2.1 72 6 0.0 0.5 18:20
  18:15 2.7 2.2 73 6 0.0 0.4 18:15
  18:10 2.7 2.2 73 6 0.0 0.5 18:10
  18:05 2.7 2.3 74 6 0.0 0.6 18:05
  18:00 2.8 2.3 75 6 0.0 0.6 18:00
20.02.2018 17:55 2.8 2.3 76 6 0.0 0.2 17:55
  17:50 2.9 2.5 75 6 0.0 0.3 17:50
  17:45 3.0 2.7 75 6 0.0 0.3 17:45
  17:40 3.1 2.8 75 6 0.0 0.5 17:40
  17:35 3.2 2.9 75 6 0.0 0.3 17:35
  17:30 3.2 3.0 75 6 0.0 0.2 17:30
  17:25 3.2 3.1 74 6 0.0 0.7 17:25
  17:20 3.2 3.2 74 6 0.0 0.4 17:20
  17:15 3.3 3.2 74 6 0.0 0.3 17:15
  17:10 3.3 3.3 74 6 0.0 0.1 17:10
  17:05 3.3 3.3 75 6 0.0 0.2 17:05
  17:00 3.3 3.4 75 6 0.0 0.3 17:00
  16:55 3.4 3.4 74 6 0.0 0.3 16:55
  16:50 3.4 3.4 74 6 0.0 0.2 16:50
  16:45 3.3 3.4 73 6 0.0 0.2 16:45
  16:40 3.4 3.4 73 6 0.0 0.3 16:40
  16:35 3.5 3.5 73 6 0.0 0.2 16:35
  16:30 3.5 3.5 73 6 0.0 0.3 16:30
  16:25 3.7 3.6 73 6 0.0 0.2 16:25
  16:20 3.8 3.7 72 6 0.0 0.2 16:20
  16:15 3.8 3.7 72 6 0.0 0.1 16:15
  16:10 3.8 3.7 71 6 0.0 0.2 16:10
  16:05 3.9 3.8 71 6 0.0 0.2 16:05
  16:00 3.8 3.7 70 6 0.0 0.4 16:00
20.02.2018 15:55 3.9 3.8 70 6 0.0 0.5 15:55
  15:50 3.9 3.8 70 6 0.0 0.6 15:50
  15:45 3.9 3.8 70 6 0.0 0.2 15:45
  15:40 4.0 3.8 70 6 0.0 0.1 15:40
  15:35 4.0 3.8 69 6 0.0 0.3 15:35
  15:30 4.1 4.0 68 6 0.0 0.3 15:30
  15:25 4.0 4.3 68 6 0.0 0.5 15:25
  15:20 4.0 4.3 68 6 0.0 0.4 15:20
  15:15 4.0 4.3 69 6 0.0 0.6 15:15
  15:10 3.9 4.2 69 6 0.0 0.5 15:10
  15:05 3.9 4.3 68 6 0.0 0.5 15:05
  15:00 4.0 4.3 67 6 0.0 0.7 15:00
  14:55 4.1 4.4 66 6 0.0 0.4 14:55
  14:50 4.2 4.6 66 6 0.0 0.4 14:50
  14:45 4.0 4.4 67 6 0.0 1.3 14:45
  14:40 3.8 4.3 66 6 0.0 1.1 14:40
  14:35 3.9 4.4 64 6 0.0 0.9 14:35
  14:30 4.1 4.6 64 6 0.0 0.7 14:30
  14:25 4.2 4.7 64 6 0.0 0.7 14:25
  14:20 4.1 4.7 65 6 0.0 0.8 14:20
  14:15 4.1 4.7 67 6 0.0 0.9 14:15
  14:10 3.8 4.4 67 6 0.0 1.3 14:10
  14:05 4.0 4.5 67 6 0.0 0.8 14:05
  14:00 4.3 4.8 69 6 0.0 0.8 14:00
20.02.2018 13:55 4.3 4.8 69 6 0.0 0.9 13:55
  13:50 4.3 4.7 68 6 0.0 0.9 13:50
  13:45 4.1 4.7 66 6 0.0 1.0 13:45
  13:40 5.1 5.8 66 6 0.0 0.8 13:40
  13:35 5.8 7.0 68 7 0.0 0.9 13:35
  13:30 5.0 5.9 70 7 0.0 0.7 13:30
  13:25 4.3 5.1 71 6 0.0 0.9 13:25
  13:20 4.1 4.6 71 6 0.0 0.7 13:20
  13:15 4.0 4.4 71 6 0.0 0.7 13:15
  13:10 3.8 4.3 70 6 0.0 0.9 13:10
  13:05 3.8 4.4 69 6 0.0 0.7 13:05
  13:00 4.1 4.5 69 6 0.0 0.7 13:00
  12:55 4.3 5.0 69 6 0.0 0.7 12:55
  12:50 4.2 4.8 69 6 0.0 0.5 12:50
  12:45 4.2 4.8 70 6 0.0 0.6 12:45
  12:40 4.1 4.6 68 6 0.0 0.5 12:40
  12:35 3.9 4.5 69 6 0.0 0.9 12:35
  12:30 3.8 4.4 71 6 0.0 0.5 12:30
  12:25 3.7 4.2 71 6 0.0 0.5 12:25
  12:20 3.8 4.4 71 7 0.0 0.5 12:20
  12:15 4.2 4.9 72 7 0.0 0.8 12:15
  12:10 4.3 4.9 74 7 0.0 0.5 12:10
  12:05 4.0 4.6 75 7 0.0 0.2 12:05
  12:00 3.5 4.2 75 7 0.0 0.3 12:00
20.02.2018 11:55 3.7 4.4 75 7 0.0 0.7 11:55
  11:50 3.5 4.2 75 7 0.0 0.5 11:50
  11:45 3.6 4.3 75 7 0.0 0.4 11:45
  11:40 3.5 4.3 74 7 0.0 0.5 11:40
  11:35 3.6 4.4 75 7 0.0 0.5 11:35
  11:30 3.5 4.3 76 7 0.0 0.5 11:30
  11:25 3.4 4.0 76 7 0.0 0.5 11:25
  11:20 3.3 3.8 76 7 0.0 0.3 11:20
  11:15 3.3 4.0 77 7 0.0 0.3 11:15
  11:10 3.0 3.7 77 7 0.0 0.3 11:10
  11:05 3.0 3.6 78 7 0.0 0.2 11:05
  11:00 3.0 3.7 77 7 0.0 0.5 11:00
  10:55 3.1 3.9 77 7 0.0 0.6 10:55
  10:50 3.2 3.9 76 7 0.0 0.6 10:50
  10:45 3.5 4.1 77 7 0.0 0.5 10:45
  10:40 3.3 4.0 78 7 0.0 0.5 10:40
  10:35 3.0 3.6 80 7 0.0 0.3 10:35
  10:30 2.6 3.5 82 7 0.0 0.4 10:30
  10:25 2.2 3.0 83 7 0.0 0.5 10:25
  10:20 2.0 2.8 83 7 0.0 0.7 10:20
  10:15 1.7 2.5 84 7 0.0 0.4 10:15
  10:10 1.5 2.3 84 7 0.0 0.4 10:10
  10:05 1.7 2.7 85 7 0.0 0.6 10:05
  10:00 1.4 2.2 86 8 0.0 0.4 10:00
20.02.2018 09:55 1.2 1.9 87 8 0.0 0.2 09:55
  09:50 0.9 1.5 88 8 0.0 0.1 09:50
  09:45 0.7 1.0 89 10 0.0 0.1 09:45
  09:40 0.6 0.8 89 10 0.0 0.0 09:40
  09:35 0.6 0.8 90 10 0.0 0.1 09:35
  09:30 0.7 0.6 90 10 0.0 0.1 09:30
  09:25 0.8 0.4 90 11 0.0 0.1 09:25
  09:20 0.8 0.4 90 11 0.0 0.0 09:20
  09:15 0.8 0.4 91 11 0.0 0.0 09:15
  09:10 0.9 0.4 91 11 0.0 0.0 09:10
  09:05 0.8 0.3 92 11 0.0 0.0 09:05
  09:00 0.8 0.3 92 12 0.0 0.0 09:00
  08:55 0.6 0.2 92 12 0.0 0.0 08:55
  08:50 0.5 0.2 93 13 0.0 0.1 08:50
  08:45 0.4 0.0 93 13 0.0 0.0 08:45
  08:40 0.1 -0.1 93 14 0.0 0.1 08:40
  08:35 -0.1 -0.2 94 14 0.0 0.1 08:35
  08:30 -0.3 -0.4 94 16 0.0 0.1 08:30
  08:25 -0.4 -0.6 94 18 0.0 0.1 08:25
  08:20 -0.5 -0.8 95 19 0.0 0.1 08:20
  08:15 -0.6 -0.9 95 26 0.0 0.0 08:15
  08:10 -0.7 -1.1 95 53 0.0 0.0 08:10
  08:05 -0.8 -1.2 95 77 0.0 0.0 08:05
  08:00 -0.9 -1.2 95 82 0.0 0.0 08:00
20.02.2018 07:55 -0.9 -1.2 95 79 0.0 0.3 07:55
  07:50 -0.9 -1.3 95 92 0.0 0.0 07:50
  07:45 -1.0 -1.3 95 100 0.0 0.0 07:45
  07:40 -1.0 -1.4 95 100 0.0 0.0 07:40
  07:35 -1.0 -1.4 95 100 0.0 0.0 07:35
  07:30 -1.0 -1.3 95 100 0.0 0.0 07:30
  07:25 -1.0 -1.3 95 100 0.0 0.0 07:25
  07:20 -1.0 -1.3 95 100 0.0 0.0 07:20
  07:15 -1.0 -1.3 95 100 0.0 0.0 07:15
  07:10 -1.0 -1.4 95 100 0.0 0.0 07:10
  07:05 -1.0 -1.4 95 100 0.0 0.0 07:05
  07:00 -1.1 -1.4 95 100 0.0 0.0 07:00
  06:55 -1.0 -1.4 95 100 0.0 0.0 06:55
  06:50 -1.1 -1.4 95 100 0.0 0.0 06:50
  06:45 -1.0 -1.4 95 100 0.0 0.0 06:45
  06:40 -1.0 -1.4 95 100 0.0 0.0 06:40
  06:35 -1.1 -1.4 95 100 0.0 0.0 06:35
  06:30 -1.1 -1.5 96 100 0.0 0.0 06:30
  06:25 -1.1 -1.5 96 100 0.0 0.0 06:25
  06:20 -1.1 -1.5 96 100 0.0 0.1 06:20
  06:15 -1.2 -1.5 96 100 0.0 0.1 06:15
  06:10 -1.2 -1.6 96 100 0.0 0.0 06:10
  06:05 -1.2 -1.6 96 100 0.0 0.0 06:05
  06:00 -1.2 -1.6 96 100 0.0 0.0 06:00
20.02.2018 05:55 -1.2 -1.7 96 100 0.0 0.0 05:55
  05:50 -1.3 -1.7 96 100 0.0 0.0 05:50
  05:45 -1.3 -1.7 96 100 0.0 0.0 05:45
  05:40 -1.3 -1.7 96 100 0.0 0.0 05:40
  05:35 -1.2 -1.7 96 100 0.0 0.0 05:35
  05:30 -1.3 -1.7 96 100 0.0 0.0 05:30
  05:25 -1.3 -1.8 96 100 0.0 0.0 05:25
  05:20 -1.3 -1.8 96 100 0.0 0.0 05:20
  05:15 -1.3 -1.9 96 100 0.0 0.0 05:15
  05:10 -1.4 -1.9 96 100 0.0 0.0 05:10
  05:05 -1.5 -2.0 96 100 0.0 0.0 05:05
  05:00 -1.5 -2.0 96 100 0.0 0.0 05:00
  04:55 -1.5 -2.0 96 100 0.0 0.0 04:55
  04:50 -1.6 -2.0 96 100 0.0 0.0 04:50
  04:45 -1.6 -2.1 96 100 0.0 0.0 04:45
  04:40 -1.6 -2.1 96 100 0.0 0.0 04:40
  04:35 -1.6 -2.1 96 100 0.0 0.0 04:35
  04:30 -1.7 -2.2 96 100 0.0 0.0 04:30
  04:25 -1.7 -2.2 96 100 0.0 0.0 04:25
  04:20 -1.7 -2.2 96 100 0.0 0.0 04:20
  04:15 -1.7 -2.3 96 100 0.0 0.0 04:15
  04:10 -1.7 -2.4 96 100 0.0 0.0 04:10
  04:05 -1.8 -2.4 96 100 0.0 0.0 04:05
  04:00 -1.7 -2.4 96 100 0.0 0.0 04:00
20.02.2018 03:55 -1.7 -2.5 97 100 0.0 0.0 03:55
  03:50 -2.0 -2.9 97 100 0.0 0.0 03:50
  03:45 -2.3 -3.3 97 100 0.0 0.0 03:45
  03:40 -2.3 -3.7 96 100 0.0 0.0 03:40
  03:35 -2.4 -3.9 96 100 0.0 0.0 03:35
  03:30 -2.4 -3.9 96 100 0.0 0.0 03:30
  03:25 -2.3 -3.9 96 100 0.0 0.0 03:25
  03:20 -2.2 -3.7 96 100 0.0 0.0 03:20
  03:15 -2.2 -3.7 96 100 0.0 0.0 03:15
  03:10 -2.3 -3.7 95 100 0.0 0.0 03:10
  03:05 -2.2 -3.6 95 100 0.0 0.0 03:05
  03:00 -2.2 -3.5 95 100 0.0 0.0 03:00
  02:55 -2.3 -3.4 95 100 0.0 0.0 02:55
  02:50 -2.3 -3.5 95 100 0.0 0.0 02:50
  02:45 -2.2 -3.7 94 100 0.0 0.0 02:45
  02:40 -2.0 -3.6 95 100 0.0 0.0 02:40
  02:35 -2.1 -3.5 95 100 0.0 0.0 02:35
  02:30 -2.2 -3.4 94 100 0.0 0.0 02:30
  02:25 -2.3 -3.4 94 100 0.0 0.0 02:25
  02:20 -2.1 -3.3 94 100 0.0 0.0 02:20
  02:15 -2.0 -3.2 94 100 0.0 0.0 02:15
  02:10 -1.8 -3.2 94 100 0.0 0.0 02:10
  02:05 -1.9 -3.2 93 100 0.0 0.0 02:05
  02:00 -2.0 -3.1 93 100 0.0 0.0 02:00
20.02.2018 01:55 -1.9 -3.0 92 100 0.0 0.0 01:55
  01:50 -1.7 -2.8 92 100 0.0 0.0 01:50
  01:45 -1.6 -2.5 92 100 0.0 0.0 01:45
  01:40 -1.4 -2.5 92 100 0.0 0.0 01:40
  01:35 -1.5 -2.5 91 100 0.0 0.0 01:35
  01:30 -1.4 -2.5 91 100 0.0 0.0 01:30
  01:25 -1.5 -2.5 91 100 0.0 0.0 01:25
  01:20 -1.2 -2.3 91 91 0.0 0.0 01:20
  01:15 -1.2 -2.4 91 99 0.0 0.1 01:15
  01:10 -1.4 -2.5 90 100 0.0 0.0 01:10
  01:05 -1.2 -2.2 90 100 0.0 0.0 01:05
  01:00 -1.0 -2.1 90 99 0.0 0.0 01:00
  00:55 -1.1 -2.2 90 100 0.0 0.0 00:55
  00:50 -1.1 -2.0 90 100 0.0 0.0 00:50
  00:45 -0.9 -1.7 90 100 0.0 0.0 00:45
  00:40 -0.8 -1.4 89 82 0.0 0.0 00:40
  00:35 -0.6 -1.2 89 26 0.0 0.0 00:35
  00:30 -0.6 -1.1 89 17 0.0 0.0 00:30
  00:25 -0.5 -1.1 89 16 0.0 0.1 00:25
  00:20 -0.5 -1.1 89 17 0.0 0.0 00:20
  00:15 -0.5 -1.0 89 17 0.0 0.0 00:15
  00:10 -0.4 -1.0 89 16 0.0 0.2 00:10
  00:05 -0.4 -1.0 89 16 0.0 0.0 00:05
  00:00 -0.4 -0.9 88 15 0.0 0.0 00:00
    Temp.
(2 m)
Temp.
(20 cm)
Luftfeuchte Blattnässe Nieder-
schlag
Wind  
[°C] [°C] [%] [%] [mm] [m/s]
 
  Ø 1.1 0.9 82 36 - 0.3 Ø
  Min. -2.4 -3.9 - - - - Min.
  Max. 5.8 7.0 - - - - Max.
  - - - - 0.0 -
Quelle: Agrarmeteorologie Rheinland-Pfalz,
alle Angaben ohne Gewähr!
Zuletzt geändert: 21.02.18 - 00:30 Uhr